Airfield :
LOGIN :

Register | Disclaimer

   EN    FR    IT 

 










Legend :    VFR   Marginal VFR   IFR   Intensive IFR   Very Intensive IFR
Visi :
Ceiling :
>= 8 km
>= 3000ft
5 to 8 km
1000 to 3000 ft
1500m to 5 km
500 to 1000 ft
800 to 1500m
200 to 500 ft
< 800m
< 200 ft
Symbols :   Thunderstorms  Fog  Heavy snow  Heavy precipitations  Wind > 20 kt
SIGMETs :     Misc.  Thunderstorms  Icing  Turbulence  Mountain Waves  Volcanic Ashes







- Airport Elevation : 32 ft
- IATA code : NRK


ESSP - Norrköping

CURRENT METAR :
  • 151220Z 28005KT 250V310 9999 SCT035 BKN045 20/14 Q1012

EXPIRED METARs :
  • 151150Z 30006KT 9999 SCT024 BKN042 19/14 Q1012
  • 151120Z 35004KT 310V030 9999 BKN025 19/14 Q1012
  • 151050Z 32003KT 260V020 9999 BKN023 BKN033 19/15 Q1012
  • 151020Z VRB02KT 9999 BKN022 BKN032 19/13 Q1011
  • 150950Z 01004KT 350V050 9999 SCT022 BKN032 19/13 Q1011

TAF TAF ESSP
Valid from the 15 at 12:00 until the 15 at 17:00 UTC


151130Z 1512/1517 29005KT 9999 BKN030
No reported NOTAMs for that airfield.



MET'MAP, your aeronautical weather chart ! - Copyright ORBIFLY December 2007 - Disclaimer

ORBIFLY MET'MAP TEAM :

Programming & Development : Alexandra Zaïnal
Concept & Development : Baudouin d'Aumeries
Co-Development & Prog : Marc-Olivier Méhu
Technical & hardware support : Manuel Goepfert

Contact : metmap@orbifly.com




SOURCES & CREDITS :

   NOAA